Time;durP1;ratioP1;P1;durP2;ratioP2;P2;SDS_P1;SDS_P2;PMS_P1;PMS_P2;Temp;Humidity;BMP_temperature;BMP_pressure;BME280_temperature;BME280_humidity;BME280_pressure;Samples;Min_cycle;Max_cycle;Signal;HPM_P1;HPM_P2
2022/03/05 00:03:20;;;;;;;18.47;15.50;;;;;;;5.95;44.39;98322.44;8347849;28;20228;-83
2022/03/05 00:07:25;;;;;;;18.00;14.97;;;;;;;5.92;44.55;98335.34;8347615;28;20338;-83
2022/03/05 00:11:29;;;;;;;16.70;14.87;;;;;;;5.88;44.61;98325.97;8349718;28;20566;-83
2022/03/05 00:15:32;;;;;;;17.37;15.20;;;;;;;5.89;44.27;98325.09;8347061;28;20231;-84
2022/03/05 00:19:35;;;;;;;19.30;16.20;;;;;;;5.87;44.34;98321.72;8347455;28;20235;-84
2022/03/05 00:23:40;;;;;;;18.80;16.90;;;;;;;5.85;44.32;98318.34;8347678;28;20516;-84
2022/03/05 00:27:43;;;;;;;20.73;18.00;;;;;;;5.81;44.29;98316.69;8347419;28;20532;-84
2022/03/05 00:31:47;;;;;;;21.23;18.27;;;;;;;5.67;44.01;98314.38;8347289;28;20410;-84
2022/03/05 00:35:50;;;;;;;19.67;17.10;;;;;;;5.66;44.05;98315.28;8346959;28;20463;-84
2022/03/05 00:39:55;;;;;;;21.70;17.40;;;;;;;5.59;43.73;98318.81;8346592;28;20232;-84
2022/03/05 00:43:57;;;;;;;22.40;16.90;;;;;;;5.56;43.96;98314.59;8346432;28;20247;-84
2022/03/05 00:48:01;;;;;;;18.70;16.70;;;;;;;5.49;44.16;98325.84;8346250;28;20275;-84
2022/03/05 00:52:04;;;;;;;19.30;16.70;;;;;;;5.52;43.87;98327.50;8346607;28;20246;-83
2022/03/05 00:56:11;;;;;;;17.93;15.43;;;;;;;5.42;44.10;98325.09;8346305;28;20428;-84
2022/03/05 01:00:14;;;;;;;19.27;16.37;;;;;;;5.47;44.09;98317.34;8345876;28;20561;-84
2022/03/05 01:04:17;;;;;;;17.93;16.00;;;;;;;5.46;43.95;98325.91;8346346;28;20465;-84
2022/03/05 01:08:20;;;;;;;19.30;15.77;;;;;;;5.34;43.99;98315.84;8346162;28;20231;-84
2022/03/05 01:12:25;;;;;;;21.63;16.83;;;;;;;5.28;44.12;98316.81;8346554;28;20278;-84
2022/03/05 01:16:28;;;;;;;19.93;16.57;;;;;;;5.36;43.67;98316.69;8345691;28;20239;-84
2022/03/05 01:20:31;;;;;;;19.97;16.83;;;;;;;5.34;44.02;98308.16;8346025;28;20231;-85
2022/03/05 01:24:34;;;;;;;23.30;17.60;;;;;;;5.22;43.87;98298.94;8351240;28;20342;-84
2022/03/05 01:28:39;;;;;;;20.27;16.60;;;;;;;5.32;43.72;98304.78;8352113;28;20426;-84
2022/03/05 01:32:42;;;;;;;19.03;16.60;;;;;;;5.28;43.62;98306.53;8351772;28;20238;-84
2022/03/05 01:36:45;;;;;;;18.37;15.70;;;;;;;5.15;44.14;98300.75;8351694;28;20403;-84
2022/03/05 01:40:51;;;;;;;18.60;16.47;;;;;;;5.21;44.57;98298.06;8352360;28;20236;-84
2022/03/05 01:44:56;;;;;;;18.50;15.80;;;;;;;5.12;44.85;98293.09;8352961;28;20236;-84
2022/03/05 01:48:59;;;;;;;18.60;16.50;;;;;;;5.19;44.46;98287.00;8354666;28;20236;-84
2022/03/05 01:53:06;;;;;;;18.10;16.17;;;;;;;5.11;44.41;98296.56;8354225;28;20211;-82
2022/03/05 01:57:09;;;;;;;18.33;15.27;;;;;;;5.07;44.14;98287.22;8353860;28;20385;-82
2022/03/05 02:01:14;;;;;;;19.83;15.97;;;;;;;4.94;44.20;98289.13;8351995;28;20232;-83
2022/03/05 02:05:18;;;;;;;17.97;15.70;;;;;;;4.94;44.51;98283.16;8352400;28;20235;-83
2022/03/05 02:09:22;;;;;;;17.47;15.53;;;;;;;4.92;44.23;98280.63;8352662;28;20236;-84
2022/03/05 02:13:27;;;;;;;18.93;15.53;;;;;;;4.86;43.90;98286.69;8352902;28;20232;-83
2022/03/05 02:17:32;;;;;;;18.77;16.07;;;;;;;4.84;44.14;98288.44;8336421;28;20232;-83
2022/03/05 02:21:37;;;;;;;17.83;15.43;;;;;;;4.89;44.12;98289.22;8352348;28;20409;-83
2022/03/05 02:25:51;;;;;;;17.87;15.93;;;;;;;4.80;44.03;98293.66;8351652;28;20228;-83
2022/03/05 02:29:55;;;;;;;17.73;15.40;;;;;;;4.86;43.72;98288.44;8353101;28;20236;-83
2022/03/05 02:34:00;;;;;;;18.07;16.17;;;;;;;4.85;44.01;98292.69;8351823;28;20295;-83
2022/03/05 02:38:05;;;;;;;20.53;16.30;;;;;;;4.74;44.36;98292.03;8352571;28;20254;-83
2022/03/05 02:42:08;;;;;;;18.13;16.20;;;;;;;4.76;44.39;98281.72;8352066;28;20235;-83
2022/03/05 02:46:11;;;;;;;17.63;15.83;;;;;;;4.78;43.86;98279.97;8352232;28;20291;-83
2022/03/05 02:50:15;;;;;;;20.50;16.93;;;;;;;4.67;44.25;98273.31;8348713;28;20299;-83
2022/03/05 02:54:20;;;;;;;18.87;15.93;;;;;;;4.67;44.03;98277.59;8350968;28;20385;-83
2022/03/05 02:58:23;;;;;;;17.93;15.63;;;;;;;4.61;43.92;98293.09;8352880;28;20232;-83
2022/03/05 03:02:26;;;;;;;17.90;16.10;;;;;;;4.64;43.83;98288.75;8349644;28;20527;-83
2022/03/05 03:06:30;;;;;;;18.70;16.03;;;;;;;4.56;44.44;98292.31;8349535;28;20224;-83
2022/03/05 03:10:34;;;;;;;18.50;16.07;;;;;;;4.63;45.11;98301.63;8348896;28;20220;-84
2022/03/05 03:14:37;;;;;;;18.83;16.37;;;;;;;4.65;45.71;98294.75;8349003;28;20240;-83
2022/03/05 03:18:41;;;;;;;21.10;17.63;;;;;;;4.65;45.76;98298.16;8349241;28;20240;-84
2022/03/05 03:22:45;;;;;;;19.43;17.00;;;;;;;4.73;45.50;98298.03;8348358;28;20441;-84
2022/03/05 03:26:50;;;;;;;18.77;16.03;;;;;;;4.74;45.36;98288.59;8348202;28;20244;-84
2022/03/05 03:30:53;;;;;;;18.87;16.40;;;;;;;4.80;45.57;98291.09;8348491;28;20235;-83
2022/03/05 03:34:56;;;;;;;18.47;16.57;;;;;;;4.76;45.19;98292.00;8347759;28;20550;-83
2022/03/05 03:38:59;;;;;;;18.23;16.30;;;;;;;4.70;45.13;98283.53;8348073;28;20232;-83
2022/03/05 03:43:04;;;;;;;19.63;16.17;;;;;;;4.66;45.22;98291.28;8347716;28;20231;-84
2022/03/05 03:47:07;;;;;;;17.50;15.67;;;;;;;4.61;45.14;98293.09;8347212;28;20510;-83
2022/03/05 03:51:10;;;;;;;18.20;16.30;;;;;;;4.69;45.28;98286.97;8347515;28;20228;-83
2022/03/05 03:55:16;;;;;;;20.93;17.00;;;;;;;4.57;45.46;98287.16;8345856;28;20232;-83
2022/03/05 03:59:21;;;;;;;21.40;16.43;;;;;;;4.70;45.42;98282.66;8347727;28;20233;-83
2022/03/05 04:03:24;;;;;;;19.73;16.00;;;;;;;4.76;45.37;98290.28;8347385;28;20232;-84
2022/03/05 04:11:47;;;;;;;18.40;16.43;;;;;;;4.67;45.59;98298.97;8346982;28;20228;-84
2022/03/05 04:15:52;;;;;;;17.47;15.60;;;;;;;4.73;45.79;98297.19;8346960;28;20555;-83
2022/03/05 04:19:55;;;;;;;18.53;16.53;;;;;;;4.79;45.52;98307.34;8346575;28;20299;-84
2022/03/05 04:23:58;;;;;;;18.10;16.17;;;;;;;4.80;45.81;98301.38;8346618;28;20239;-83
2022/03/05 04:28:01;;;;;;;19.87;16.73;;;;;;;4.72;45.71;98295.47;8345524;28;20228;-84
2022/03/05 04:32:08;;;;;;;17.13;15.37;;;;;;;4.68;45.82;98304.94;8347076;28;20235;-83
2022/03/05 04:36:11;;;;;;;19.20;17.10;;;;;;;4.65;46.04;98305.00;8346780;28;20232;-84
2022/03/05 04:40:15;;;;;;;19.00;15.93;;;;;;;4.67;45.99;98296.41;8346831;28;20235;-83
2022/03/05 04:44:18;;;;;;;21.37;17.53;;;;;;;4.68;46.44;98300.69;8346758;28;20228;-83
2022/03/05 04:48:23;;;;;;;18.60;16.70;;;;;;;4.78;46.58;98309.06;8346524;28;20239;-84
2022/03/05 04:52:26;;;;;;;19.87;16.70;;;;;;;4.77;46.91;98317.63;8347037;28;20557;-83
2022/03/05 04:56:29;;;;;;;18.90;16.90;;;;;;;4.81;46.85;98323.56;8346304;28;20416;-83
2022/03/05 05:00:33;;;;;;;20.33;17.07;;;;;;;4.83;46.97;98324.38;8352449;28;20224;-84
2022/03/05 05:04:38;;;;;;;18.63;16.73;;;;;;;4.90;47.21;98324.25;8353508;28;20287;-83
2022/03/05 05:08:42;;;;;;;20.33;17.50;;;;;;;4.97;46.68;98325.03;8352817;28;20309;-83
2022/03/05 05:12:45;;;;;;;19.47;16.77;;;;;;;4.85;47.24;98328.63;8352593;28;20243;-83
2022/03/05 05:16:48;;;;;;;19.53;17.43;;;;;;;4.84;47.14;98328.66;8350822;28;20236;-83
2022/03/05 05:20:53;;;;;;;19.10;17.13;;;;;;;4.76;46.82;98326.22;8352164;28;20247;-83
2022/03/05 05:24:56;;;;;;;19.20;17.20;;;;;;;4.86;46.46;98325.19;8352476;28;20239;-84
2022/03/05 05:29:00;;;;;;;23.20;20.70;;;;;;;4.68;46.79;98346.84;8352205;28;20239;-84
2022/03/05 05:33:03;;;;;;;24.80;18.17;;;;;;;4.73;46.97;98339.09;8352247;28;20338;-84
2022/03/05 05:37:08;;;;;;;21.03;18.60;;;;;;;4.74;47.62;98345.91;8352036;28;20262;-83
2022/03/05 05:41:14;;;;;;;20.87;18.63;;;;;;;4.78;47.67;98351.81;8352713;28;20246;-83
2022/03/05 05:45:18;;;;;;;20.43;17.87;;;;;;;4.79;47.77;98341.53;8354983;28;20232;-83
2022/03/05 05:49:21;;;;;;;21.87;18.40;;;;;;;4.90;47.71;98352.50;8353894;28;20543;-83
2022/03/05 05:53:26;;;;;;;20.73;18.33;;;;;;;4.89;47.54;98355.09;8351701;28;20251;-83
2022/03/05 05:57:28;;;;;;;19.97;17.83;;;;;;;4.94;47.67;98352.47;8351508;28;20232;-83
2022/03/05 06:01:32;;;;;;;22.10;19.13;;;;;;;4.99;47.38;98359.22;8351041;28;20299;-84
2022/03/05 06:05:35;;;;;;;20.60;18.40;;;;;;;5.02;47.57;98369.41;8350587;28;20236;-84
2022/03/05 06:09:40;;;;;;;20.10;17.37;;;;;;;5.01;47.66;98367.75;8341896;28;20235;-83
2022/03/05 06:13:49;;;;;;;19.30;17.27;;;;;;;5.02;47.54;98373.72;8363697;28;20232;-84
2022/03/05 06:17:54;;;;;;;19.50;17.40;;;;;;;5.11;47.33;98375.31;8350851;28;20427;-84
2022/03/05 06:21:57;;;;;;;19.10;16.87;;;;;;;5.08;47.25;98381.31;8350612;28;20232;-83
2022/03/05 06:26:02;;;;;;;18.47;16.57;;;;;;;5.11;47.43;98375.31;8350565;28;20232;-84
2022/03/05 06:30:06;;;;;;;18.87;16.90;;;;;;;5.17;47.34;98375.19;8350683;28;20228;-84
2022/03/05 06:34:09;;;;;;;18.33;16.43;;;;;;;5.12;47.38;98384.69;8350248;28;20273;-83
2022/03/05 06:38:13;;;;;;;20.70;17.00;;;;;;;5.15;47.17;98387.22;8350268;28;20236;-84
2022/03/05 06:42:18;;;;;;;18.90;16.87;;;;;;;5.18;47.36;98382.00;8349845;28;20232;-83
2022/03/05 06:46:21;;;;;;;20.40;17.60;;;;;;;5.30;46.90;98381.84;8349037;28;20236;-84
2022/03/05 06:50:25;;;;;;;21.23;18.03;;;;;;;5.12;47.15;98372.69;8348824;28;20285;-83
2022/03/05 06:54:28;;;;;;;26.50;21.57;;;;;;;5.29;46.90;98380.13;8349057;28;20232;-83
2022/03/05 06:58:32;;;;;;;21.73;19.43;;;;;;;5.28;46.65;98384.41;8348473;28;20235;-84
2022/03/05 07:02:36;;;;;;;25.07;19.60;;;;;;;5.35;46.46;98386.88;8349013;28;20349;-84
2022/03/05 07:06:40;;;;;;;22.77;20.23;;;;;;;5.39;46.90;98386.81;8349397;28;20240;-84
2022/03/05 07:10:43;;;;;;;26.00;20.53;;;;;;;5.46;46.76;98380.72;8348697;28;20228;-84
2022/03/05 07:14:49;;;;;;;24.37;20.70;;;;;;;5.43;46.53;98372.22;8347409;28;20408;-84
2022/03/05 07:18:52;;;;;;;23.40;19.50;;;;;;;5.39;46.72;98379.13;8348277;28;20232;-84
2022/03/05 07:22:55;;;;;;;24.13;20.23;;;;;;;5.41;46.60;98376.53;8347826;28;20231;-84
2022/03/05 07:31:18;;;;;;;23.53;20.37;;;;;;;5.58;46.97;98368.50;8348300;28;20347;-83
2022/03/05 07:35:21;;;;;;;25.37;21.43;;;;;;;5.66;46.74;98382.06;8348330;28;20228;-83
2022/03/05 07:39:24;;;;;;;24.37;20.70;;;;;;;5.74;46.80;98385.34;8348760;28;20231;-82
2022/03/05 07:43:27;;;;;;;22.80;20.40;;;;;;;5.81;46.50;98388.66;8348420;28;20246;-83
2022/03/05 07:47:33;;;;;;;25.53;21.40;;;;;;;5.78;46.51;98389.56;8347979;28;20232;-84
2022/03/05 07:51:39;;;;;;;24.57;21.93;;;;;;;5.97;46.73;98407.25;8346578;28;20353;-83
2022/03/05 07:55:45;;;;;;;25.47;21.97;;;;;;;6.00;46.70;98402.91;8348436;28;20243;-83
2022/03/05 07:59:51;;;;;;;26.53;22.50;;;;;;;6.07;47.29;98395.91;8347553;28;20235;-83
2022/03/05 08:04:16;;;;;;;23.80;21.30;;;;;;;6.12;46.76;98396.66;8347752;28;20224;-83
2022/03/05 08:08:19;;;;;;;23.33;20.37;;;;;;;6.00;47.10;98404.63;8346660;28;20285;-83
2022/03/05 08:12:22;;;;;;;23.07;17.10;;;;;;;6.04;47.17;98412.25;8346100;28;20318;-83
2022/03/05 08:16:25;;;;;;;21.13;17.27;;;;;;;6.03;45.45;98420.81;8347640;28;20236;-83
2022/03/05 08:20:32;;;;;;;26.50;20.27;;;;;;;6.15;45.15;98412.06;8347622;28;20421;-83
2022/03/05 08:24:35;;;;;;;22.63;17.53;;;;;;;5.85;45.52;98426.28;8347312;28;20224;-83
2022/03/05 08:28:38;;;;;;;21.17;17.70;;;;;;;5.71;46.06;98420.53;8347613;28;20236;-84
2022/03/05 08:32:41;;;;;;;21.73;18.43;;;;;;;6.06;45.43;98420.78;8354287;28;20250;-83
2022/03/05 08:36:47;;;;;;;20.03;17.77;;;;;;;5.28;46.91;98416.97;8353741;28;20260;-84
2022/03/05 08:40:50;;;;;;;21.33;18.10;;;;;;;5.77;46.06;98421.28;8353390;28;20246;-83
2022/03/05 08:44:53;;;;;;;22.47;18.20;;;;;;;6.31;45.24;98414.31;8352098;28;20293;-83
2022/03/05 08:48:57;;;;;;;23.57;18.90;;;;;;;6.36;45.16;98410.78;8352978;28;20238;-83
2022/03/05 08:53:01;;;;;;;21.53;17.87;;;;;;;6.59;45.49;98410.28;8353355;28;20228;-83
2022/03/05 08:57:05;;;;;;;21.03;17.53;;;;;;;6.11;44.89;98415.56;8353178;28;20232;-82
2022/03/05 09:01:08;;;;;;;22.50;18.27;;;;;;;5.53;46.65;98414.84;8351833;28;20384;-82
2022/03/05 09:05:14;;;;;;;22.57;18.70;;;;;;;6.43;45.55;98399.44;8353420;28;20294;-82
2022/03/05 09:09:19;;;;;;;21.43;18.47;;;;;;;6.85;45.30;98412.31;8353162;28;20531;-82
2022/03/05 09:13:22;;;;;;;20.60;18.23;;;;;;;6.84;44.31;98412.34;8352826;28;20472;-82
2022/03/05 09:17:25;;;;;;;23.27;18.93;;;;;;;6.89;43.99;98410.50;8352679;28;20232;-82
2022/03/05 09:21:28;;;;;;;22.73;18.73;;;;;;;6.69;44.94;98407.53;8352954;28;20519;-82
2022/03/05 09:25:33;;;;;;;23.43;18.87;;;;;;;6.84;43.85;98399.47;8352706;28;20232;-83
2022/03/05 09:29:36;;;;;;;25.07;18.17;;;;;;;7.35;43.19;98408.56;8352494;28;20235;-82
2022/03/05 09:33:39;;;;;;;19.83;16.73;;;;;;;7.31;42.78;98409.53;8352358;28;20240;-82
2022/03/05 09:37:42;;;;;;;19.23;17.20;;;;;;;7.43;43.00;98404.94;8352117;28;20236;-81
2022/03/05 09:41:48;;;;;;;21.40;17.80;;;;;;;7.43;42.46;98404.09;8352158;28;20311;-83
2022/03/05 09:45:52;;;;;;;21.60;17.40;;;;;;;8.26;41.39;98407.06;8351039;28;20262;-82
2022/03/05 09:49:55;;;;;;;19.43;17.37;;;;;;;8.56;40.90;98401.94;8351802;28;20231;-82
2022/03/05 09:53:58;;;;;;;18.13;15.53;;;;;;;8.59;39.69;98394.97;8351597;28;20228;-82
2022/03/05 09:58:03;;;;;;;17.30;15.43;;;;;;;9.62;38.18;98393.47;8351702;28;20232;-82
2022/03/05 10:02:07;;;;;;;19.17;16.43;;;;;;;9.67;37.98;98388.13;8351432;28;20258;-82
2022/03/05 10:06:20;;;;;;;18.07;16.10;;;;;;;9.02;39.45;98392.81;8350959;28;20232;-82
2022/03/05 10:10:23;;;;;;;18.90;16.30;;;;;;;8.89;39.18;98384.63;8351297;28;20228;-82
2022/03/05 10:14:28;;;;;;;19.67;16.43;;;;;;;8.69;40.46;98376.63;8351034;28;20231;-82
2022/03/05 10:18:32;;;;;;;19.10;16.27;;;;;;;8.65;40.41;98383.63;8350934;28;20243;-82
2022/03/05 10:22:35;;;;;;;18.67;16.07;;;;;;;9.40;39.18;98385.56;8350704;28;20523;-83
2022/03/05 10:26:52;;;;;;;17.87;15.63;;;;;;;9.43;38.38;98379.47;8350771;28;20271;-83
2022/03/05 10:31:02;;;;;;;21.00;16.90;;;;;;;9.11;38.71;98368.44;8350706;28;20235;-83
2022/03/05 10:35:10;;;;;;;16.37;14.67;;;;;;;10.26;37.54;98372.25;8333605;28;20233;-83
2022/03/05 10:39:25;;;;;;;19.83;14.43;;;;;;;9.96;36.96;98371.63;8350689;28;20229;-82
2022/03/05 10:43:28;;;;;;;16.73;14.93;;;;;;;9.70;38.02;98372.53;8350683;28;20240;-83
2022/03/05 10:47:38;;;;;;;17.40;15.50;;;;;;;9.71;37.59;98366.44;8349750;28;20239;-83
2022/03/05 10:51:41;;;;;;;16.93;14.77;;;;;;;9.61;37.83;98370.25;8351166;28;20340;-83
2022/03/05 10:55:44;;;;;;;16.40;14.73;;;;;;;9.51;36.96;98374.88;8350021;28;20240;-83
2022/03/05 10:59:49;;;;;;;15.43;13.33;;;;;;;9.74;36.66;98367.19;8349919;28;20299;-83
2022/03/05 11:03:54;;;;;;;17.03;15.27;;;;;;;10.07;37.40;98364.31;8350894;28;20232;-83
2022/03/05 11:07:58;;;;;;;16.97;15.07;;;;;;;10.86;36.73;98356.22;8350005;28;20232;-83
2022/03/05 11:12:01;;;;;;;18.37;14.43;;;;;;;10.88;36.09;98344.91;8349513;28;20232;-82
2022/03/05 11:16:05;;;;;;;16.20;12.67;;;;;;;10.55;34.07;98342.72;8350386;28;20307;-82
2022/03/05 11:20:10;;;;;;;11.97;10.77;;;;;;;10.46;32.26;98331.88;8352656;28;20232;-83
2022/03/05 11:24:15;;;;;;;13.90;12.00;;;;;;;10.38;31.67;98329.56;8348642;28;20412;-83
2022/03/05 11:28:20;;;;;;;14.03;12.53;;;;;;;10.30;32.53;98331.56;8348658;28;20462;-82
2022/03/05 11:32:30;;;;;;;14.07;11.60;;;;;;;10.40;32.97;98326.94;8348549;28;20249;-83
2022/03/05 11:36:38;;;;;;;15.23;12.67;;;;;;;10.91;32.86;98326.66;8347768;28;20231;-83
2022/03/05 11:40:42;;;;;;;9.47;8.47;;;;;;;10.82;28.94;98321.81;8348319;28;20232;-83
2022/03/05 11:44:45;;;;;;;7.90;5.70;;;;;;;9.16;26.10;98325.22;8347991;28;20235;-83
2022/03/05 11:49:00;;;;;;;6.03;5.27;;;;;;;8.61;27.58;98327.81;8348241;28;20358;-82
2022/03/05 11:53:09;;;;;;;7.90;6.23;;;;;;;8.76;27.25;98323.91;8347917;28;20575;-83
2022/03/05 11:57:13;;;;;;;6.60;6.00;;;;;;;8.31;27.01;98317.47;8347675;28;20247;-83
2022/03/05 12:01:41;;;;;;;8.17;6.63;;;;;;;7.76;29.10;98324.19;8347764;28;20236;-83
2022/03/05 12:05:59;;;;;;;7.17;6.47;;;;;;;8.09;28.00;98312.09;8347171;28;20223;-82
2022/03/05 12:10:12;;;;;;;7.30;6.60;;;;;;;7.44;29.14;98316.44;8347649;28;20535;-83
2022/03/05 12:14:15;;;;;;;6.90;6.20;;;;;;;7.65;29.02;98314.16;8347503;28;20491;-83
2022/03/05 12:18:19;;;;;;;9.23;6.40;;;;;;;7.89;28.40;98307.50;8347529;28;20244;-82
2022/03/05 12:22:22;;;;;;;8.23;6.80;;;;;;;7.64;28.92;98307.34;8347277;28;20236;-82
2022/03/05 12:26:35;;;;;;;6.93;6.00;;;;;;;7.98;28.92;98299.50;8345935;28;20238;-82
2022/03/05 12:30:39;;;;;;;12.67;9.30;;;;;;;8.02;28.51;98297.69;8339885;28;20235;-83
2022/03/05 12:34:43;;;;;;;8.00;6.50;;;;;;;7.74;28.66;98298.44;8347195;28;20240;-82
2022/03/05 12:38:54;;;;;;;7.17;6.37;;;;;;;7.50;29.20;98299.13;8347399;28;20236;-82
2022/03/05 12:43:00;;;;;;;8.17;6.10;;;;;;;7.45;29.30;98296.66;8347034;28;20232;-82
2022/03/05 12:47:05;;;;;;;6.47;5.83;;;;;;;7.71;29.67;98297.69;8346571;28;20281;-82
2022/03/05 12:51:08;;;;;;;6.27;5.67;;;;;;;7.68;29.21;98296.03;8346417;28;20228;-82
2022/03/05 12:55:18;;;;;;;6.77;5.70;;;;;;;7.37;29.94;98291.72;8346394;28;20236;-81
2022/03/05 12:59:23;;;;;;;6.10;5.50;;;;;;;7.53;30.24;98286.16;8346512;28;20420;-82
2022/03/05 13:03:32;;;;;;;5.93;5.30;;;;;;;7.47;30.12;98282.00;8345891;28;20220;-82
2022/03/05 13:07:36;;;;;;;6.50;4.93;;;;;;;7.32;30.21;98274.69;8345886;28;20239;-82
2022/03/05 13:11:39;;;;;;;7.90;5.43;;;;;;;7.55;30.76;98282.66;8346540;28;20228;-82
2022/03/05 13:15:44;;;;;;;9.20;7.20;;;;;;;7.43;31.03;98290.72;8346640;28;20240;-82
2022/03/05 13:19:58;;;;;;;8.57;7.47;;;;;;;7.17;31.63;98288.81;8350554;28;20240;-82
2022/03/05 13:24:04;;;;;;;9.53;7.00;;;;;;;7.10;31.90;98282.97;8352752;28;20236;-81
2022/03/05 13:28:07;;;;;;;9.63;7.37;;;;;;;6.39;33.00;98287.22;8354239;28;20251;-82
2022/03/05 13:32:12;;;;;;;10.30;7.03;;;;;;;6.54;33.12;98285.19;8352500;28;20269;-82
2022/03/05 13:36:18;;;;;;;8.10;5.60;;;;;;;6.29;31.80;98280.59;8352252;28;20248;-82
2022/03/05 13:40:21;;;;;;;7.07;6.17;;;;;;;6.94;30.67;98281.66;8352237;28;20260;-82
2022/03/05 13:44:26;;;;;;;5.20;4.70;;;;;;;6.65;31.00;98280.63;8351813;28;20228;-82
2022/03/05 13:48:30;;;;;;;5.90;5.30;;;;;;;6.66;31.03;98284.88;8351674;28;20298;-82
2022/03/05 13:52:33;;;;;;;6.00;5.37;;;;;;;6.43;31.63;98280.28;8350948;28;20232;-82
2022/03/05 13:56:44;;;;;;;5.93;5.33;;;;;;;6.93;31.54;98280.81;8351468;28;20239;-82
2022/03/05 14:00:47;;;;;;;7.57;5.83;;;;;;;6.82;32.05;98283.66;8351447;28;20236;-83
2022/03/05 14:04:58;;;;;;;6.73;5.77;;;;;;;6.60;32.34;98274.75;8351388;28;20232;-82
2022/03/05 14:09:01;;;;;;;6.40;5.67;;;;;;;6.93;31.94;98273.09;8351842;28;20235;-82
2022/03/05 14:13:05;;;;;;;7.10;5.83;;;;;;;6.97;32.33;98277.28;8351305;28;20232;-83
2022/03/05 14:17:09;;;;;;;6.27;5.67;;;;;;;6.79;31.84;98270.00;8351145;28;20310;-82
2022/03/05 14:21:18;;;;;;;8.43;6.80;;;;;;;6.75;32.06;98274.38;8350794;28;20252;-82
2022/03/05 14:25:23;;;;;;;6.70;5.87;;;;;;;7.16;31.52;98269.06;8351084;28;20232;-82
2022/03/05 14:29:26;;;;;;;7.73;5.80;;;;;;;7.20;30.77;98266.41;8350098;28;20235;-82
2022/03/05 14:33:30;;;;;;;5.73;5.03;;;;;;;7.22;30.80;98262.03;8350330;28;20265;-82
2022/03/05 14:37:35;;;;;;;7.67;5.47;;;;;;;7.31;29.77;98260.97;8349836;28;20350;-82
2022/03/05 14:41:38;;;;;;;5.97;5.37;;;;;;;6.65;31.07;98265.19;8350047;28;20231;-82
2022/03/05 14:45:42;;;;;;;6.37;5.57;;;;;;;6.54;30.99;98257.72;8349706;28;20235;-82
2022/03/05 14:49:46;;;;;;;7.07;6.37;;;;;;;6.59;30.08;98260.19;8349846;28;20260;-82
2022/03/05 14:53:50;;;;;;;6.30;5.70;;;;;;;6.99;29.66;98261.81;8349963;28;20244;-82
2022/03/05 14:57:54;;;;;;;8.73;7.03;;;;;;;7.10;29.65;98259.81;8349842;28;20515;-82
2022/03/05 15:01:57;;;;;;;6.70;5.83;;;;;;;6.57;30.15;98264.53;8349392;28;20330;-82
2022/03/05 15:06:00;;;;;;;10.67;5.67;;;;;;;6.96;29.85;98269.59;8349619;28;20231;-82
2022/03/05 15:10:08;;;;;;;7.97;6.37;;;;;;;6.41;30.64;98266.59;8349309;28;20238;-82
2022/03/05 15:14:11;;;;;;;8.20;6.60;;;;;;;6.73;30.50;98263.28;8349025;28;20232;-82
2022/03/05 15:18:15;;;;;;;8.07;7.00;;;;;;;6.75;30.88;98264.06;8349434;28;20262;-82
2022/03/05 15:22:18;;;;;;;7.20;5.90;;;;;;;6.44;31.09;98269.13;8349056;28;20228;-82
2022/03/05 15:26:23;;;;;;;6.10;5.50;;;;;;;6.35;30.87;98264.16;8348830;28;20250;-82
2022/03/05 15:30:25;;;;;;;5.30;4.80;;;;;;;6.00;30.53;98264.06;8348570;28;20238;-82
2022/03/05 15:34:29;;;;;;;5.93;4.87;;;;;;;6.44;30.32;98269.13;8348750;28;20228;-82
2022/03/05 15:38:32;;;;;;;5.73;4.83;;;;;;;6.40;30.09;98257.22;8347512;28;20233;-82
2022/03/05 15:42:36;;;;;;;8.73;6.27;;;;;;;5.83;30.88;98266.13;8347594;28;20224;-82
2022/03/05 15:46:44;;;;;;;8.77;5.50;;;;;;;5.87;30.49;98263.44;8348266;28;20240;-82
2022/03/05 15:50:47;;;;;;;7.43;5.07;;;;;;;6.19;30.77;98264.50;8348093;28;20558;-82
2022/03/05 15:54:50;;;;;;;5.93;5.30;;;;;;;5.72;31.46;98266.31;8348808;28;20247;-82
2022/03/05 15:58:55;;;;;;;6.93;5.60;;;;;;;6.45;31.27;98263.94;8348527;28;20228;-82
2022/03/05 16:02:58;;;;;;;6.40;5.67;;;;;;;6.73;29.79;98262.44;8348207;28;20542;-81
2022/03/05 16:07:01;;;;;;;8.53;5.77;;;;;;;6.70;29.43;98268.50;8348346;28;20235;-83
2022/03/05 16:11:04;;;;;;;6.33;5.20;;;;;;;6.57;29.35;98273.09;8347789;28;20236;-83
2022/03/05 16:15:10;;;;;;;8.30;6.70;;;;;;;6.22;30.47;98268.72;8347550;28;20232;-83
2022/03/05 16:19:13;;;;;;;7.10;5.60;;;;;;;6.04;30.23;98270.84;8347319;28;20232;-83
2022/03/05 16:23:17;;;;;;;5.57;4.83;;;;;;;6.01;30.09;98273.44;8347583;28;20259;-83
2022/03/05 16:27:20;;;;;;;5.83;4.90;;;;;;;6.50;29.61;98266.38;8347442;28;20416;-82
2022/03/05 16:31:25;;;;;;;28.10;24.73;;;;;;;6.72;29.46;98269.31;8347628;28;20243;-82
2022/03/05 16:35:30;;;;;;;7.73;5.27;;;;;;;6.84;29.83;98273.31;8347494;28;20235;-83
2022/03/05 16:39:33;;;;;;;6.23;5.60;;;;;;;6.94;30.53;98273.94;8346880;28;20231;-83
2022/03/05 16:43:38;;;;;;;7.37;6.57;;;;;;;7.13;29.71;98269.16;8347472;28;20543;-83
2022/03/05 16:47:44;;;;;;;10.20;8.30;;;;;;;6.48;30.04;98273.31;8346915;28;20569;-83
2022/03/05 16:51:48;;;;;;;9.30;8.20;;;;;;;6.86;30.30;98266.41;8349897;28;20293;-83
2022/03/05 16:55:51;;;;;;;13.00;11.33;;;;;;;6.83;30.16;98264.75;8354097;28;20310;-82
2022/03/05 16:59:53;;;;;;;9.33;8.43;;;;;;;7.19;29.94;98269.00;8354174;28;20236;-82
2022/03/05 17:03:58;;;;;;;16.87;15.17;;;;;;;6.56;29.98;98270.56;8353712;28;20243;-82
2022/03/05 17:08:01;;;;;;;42.53;38.20;;;;;;;6.28;29.98;98268.59;8353234;28;20228;-82
2022/03/05 17:12:04;;;;;;;93.33;64.97;;;;;;;6.41;29.96;98269.16;8353397;28;20232;-82
2022/03/05 17:16:08;;;;;;;62.77;43.97;;;;;;;6.34;29.96;98276.19;8353069;28;20231;-82
2022/03/05 17:20:14;;;;;;;15.57;14.00;;;;;;;6.40;29.95;98272.63;8353047;28;20273;-83
2022/03/05 17:24:17;;;;;;;11.07;9.40;;;;;;;6.19;30.42;98286.81;8353124;28;20351;-82
2022/03/05 17:28:20;;;;;;;9.07;7.50;;;;;;;6.25;30.08;98279.81;8352969;28;20385;-82
2022/03/05 17:32:24;;;;;;;7.70;6.90;;;;;;;6.31;30.17;98293.41;8352842;28;20232;-82
2022/03/05 17:36:30;;;;;;;8.43;7.23;;;;;;;5.72;30.38;98291.19;8352634;28;20232;-82
2022/03/05 17:40:34;;;;;;;12.27;9.50;;;;;;;6.03;30.33;98288.84;8350820;28;20232;-83
2022/03/05 17:44:37;;;;;;;8.40;7.50;;;;;;;6.06;30.62;98289.63;8351774;28;20527;-82
2022/03/05 17:48:41;;;;;;;10.73;8.57;;;;;;;6.00;30.66;98284.63;8351907;28;20236;-82
2022/03/05 17:52:45;;;;;;;8.57;7.67;;;;;;;5.76;31.04;98295.38;8352121;28;20236;-82
2022/03/05 17:56:50;;;;;;;10.67;9.23;;;;;;;5.91;31.11;98297.63;8350726;28;20241;-83
2022/03/05 18:00:53;;;;;;;22.27;20.10;;;;;;;5.87;31.22;98291.72;8351847;28;20238;-82
2022/03/05 18:04:56;;;;;;;11.33;9.17;;;;;;;6.09;31.29;98296.44;8351325;28;20415;-83
2022/03/05 18:09:01;;;;;;;10.10;8.03;;;;;;;6.16;31.46;98294.59;8351760;28;20238;-82
2022/03/05 18:13:04;;;;;;;8.00;7.17;;;;;;;6.29;31.84;98295.19;8351592;28;20231;-82
2022/03/05 18:17:07;;;;;;;10.63;7.73;;;;;;;6.14;32.43;98294.63;8351219;28;20494;-82
2022/03/05 18:21:10;;;;;;;9.83;8.43;;;;;;;6.55;32.30;98298.03;8350572;28;20238;-83
2022/03/05 18:25:17;;;;;;;11.63;8.70;;;;;;;6.60;32.64;98303.88;8350772;28;20236;-83
2022/03/05 18:29:24;;;;;;;9.43;8.20;;;;;;;6.46;33.00;98305.94;8350722;28;20236;-82
2022/03/05 18:33:27;;;;;;;12.17;8.63;;;;;;;6.49;33.30;98294.72;8350596;28;20302;-83
2022/03/05 18:37:34;;;;;;;10.37;8.50;;;;;;;6.52;33.64;98305.78;8350370;28;20235;-83
2022/03/05 18:41:38;;;;;;;10.43;8.57;;;;;;;6.56;33.62;98301.44;8349533;28;20535;-83
2022/03/05 18:45:44;;;;;;;8.83;7.93;;;;;;;6.84;33.04;98307.63;8350497;28;20436;-83
2022/03/05 18:49:47;;;;;;;10.17;8.77;;;;;;;6.58;33.54;98312.53;8350015;28;20239;-83
2022/03/05 18:53:51;;;;;;;10.17;8.93;;;;;;;6.73;33.57;98312.19;8349845;28;20408;-83
2022/03/05 18:57:55;;;;;;;12.43;9.60;;;;;;;6.82;33.52;98311.97;8349443;28;20242;-83
2022/03/05 19:01:58;;;;;;;10.93;9.17;;;;;;;6.88;33.56;98305.81;8349503;28;20243;-83
2022/03/05 19:06:03;;;;;;;11.50;9.97;;;;;;;6.98;33.96;98309.03;8349206;28;20417;-83
2022/03/05 19:10:06;;;;;;;10.70;9.60;;;;;;;6.98;33.72;98309.03;8348691;28;20543;-83
2022/03/05 19:14:11;;;;;;;13.83;9.47;;;;;;;7.07;34.07;98310.53;8348396;28;20232;-83